METAR Data
IDs: Format: Raw Decoded Include TAF

Data at: 0123 UTC 24 Sep 2018

KECP 240053Z 02003KT 10SM SCT090 24/23 A2997 RMK AO2 RAB23E33 SLP159 P0000 T02440228
KECP 232353Z COR 01004KT 10SM SCT070 25/23 A2996 RMK AO2 SLP158 60029 T02500233 10317 20239 53003
KECP 232253Z COR 03004KT 10SM SCT040 25/23 A2996 RMK AO2 RAE14 TSB13E14E31E39 SLP155 P0005 T02500233
KECP 232202Z 36006KT 7SM R16/2600VP6000FT -RA SCT024 BKN037 OVC090 24/22 A2994 RMK AO2 P0005 T02390222
KECP 232153Z 03008KT 3/4SM R16/P6000FT +RA BR SCT021 BKN031 OVC049 24/23 A2996 RMK AO2 LTG DSNT NE RAB12E21B39 SLP155 P0023 T02390228
KECP 232150Z 07006KT 1 1/2SM +RA BR FEW013 BKN041 OVC049 24/23 A2996 RMK AO2 LTG DSNT NE RAB12E21B39 P0012
KECP 232122Z 04007KT 10SM SCT028 BKN036 BKN090 26/23 A2997 RMK AO2 LTG DSNT N RAB12E21 P0000 T02610228
KECP 232053Z 33006KT 10SM VCTS BKN030 26/23 A2996 RMK AO2 LTG DSNT NE SLP154 60001 T02610233 56010
KECP 231953Z 33011KT 10SM BKN037 26/23 A2996 RMK AO2 LTG DSNT N SLP155 T02610228
KECP 231853Z 12007KT 10SM FEW032 SCT038 BKN055 31/22 A2996 RMK AO2 RAB08E40 SLP156 P0001 T03060222
KECP 231753Z VRB05KT 10SM SCT038 SCT055 SCT090 31/23 A2998 RMK AO2 LTG DSNT NW SLP164 T03060228 10317 20228 58011
KECP 231700Z 14006KT 10SM SCT025 BKN032 BKN045 29/24 A3000 RMK AO2 LTG DSNT N T02940239
KECP 231653Z 11007KT 10SM BKN019 29/23 A3000 RMK AO2 SLP170 T02940233
KECP 231553Z 15005KT 10SM BKN019 30/24 A3002 RMK AO2 SLP175 T03000239
KECP 231549Z 16004KT 10SM BKN019 29/23 A3002 RMK AO2
KECP 231453Z VRB04KT 10SM FEW025 29/23 A3002 RMK AO2 SLP177 T02940233 53014
KECP 231353Z 04007KT 10SM CLR 27/23 A3001 RMK AO2 SLP171 T02720233
KECP 231253Z 04004KT 10SM CLR 25/22 A2999 RMK AO2 SLP167 T02500222
KECP 231153Z 04004KT 7SM CLR 23/21 A2998 RMK AO2 RAB08E14 SLP164 P0000 60000 T02280211 10233 20222 53007
KECP 231053Z 00000KT 8SM CLR 22/21 A2997 RMK AO2 SLP161 T02220206
KECP 230953Z AUTO 00000KT 9SM CLR 22/21 A2996 RMK AO2 SLP156 T02220206
KECP 230853Z AUTO 03003KT 9SM CLR 22/21 A2996 RMK AO2 SLP156 T02220206 58008
KECP 230753Z AUTO 06003KT 10SM CLR 23/21 A2998 RMK AO2 SLP162 T02280211
KECP 230653Z AUTO 02003KT 9SM CLR 23/22 A2997 RMK AO2 SLP160 T02280217
KECP 230553Z AUTO 34003KT 10SM CLR 23/22 A2998 RMK AO2 SLP164 60000 T02330217 10250 20228 403280228 58014
KECP 230453Z AUTO 00000KT 10SM CLR 23/22 A3000 RMK AO2 SLP170 T02330217
KECP 230353Z AUTO 00000KT 9SM CLR 23/22 A3001 RMK AO2 RAE0258 SLP173 P0000 T02330222
KECP 230253Z AUTO 00000KT 10SM -RA CLR 24/22 A3003 RMK AO2 RAB0156E07B40 SLP178 P0000 60000 T02390222 51014
KECP 230153Z 00000KT 10SM FEW120 24/22 A3002 RMK AO2 SLP176 T02440222
KECP 230053Z 00000KT 10SM FEW055 24/22 A3000 RMK AO2 SLP170 T02440222
KECP 222353Z 30004KT 10SM BKN065 BKN080 25/22 A2999 RMK AO2 SLP165 T02500217 10328 20250 51009
KECP 222253Z 25005KT 10SM VCTS SCT055 27/22 A2998 RMK AO2 SLP162 T02670217
KECP 222153Z 20006KT 10SM VCTS SCT050 29/23 A2997 RMK AO2 LTG DSNT NW TSE20 SLP158 T02890233
KECP 222126Z 20006KT 10SM VCTS SCT050 29/22 A2996 RMK AO2 LTG DSNT NW TSE20 T02940222
KECP 222053Z 24004KT 10SM TS SCT055 SCT100 29/22 A2996 RMK AO2 LTG DSNT NW TSB46 SLP155 T02940222 56012
KECP 221953Z 18006KT 10SM VCTS SCT050 SCT060 32/22 A2996 RMK AO2 LTG DSNT SE TSB27E28 SLP156 T03220222
KECP 221933Z VRB05KT 10SM VCTS SCT050 SCT060 32/21 A2997 RMK AO2 TSB27E28 T03220211
KECP 221853Z 15005KT 10SM SCT065 SCT090 32/21 A2999 RMK AO2 SLP167 T03220211
KECP 221753Z 04003KT 10SM SCT040 33/22 A3002 RMK AO2 SLP175 T03280217 10328 20228 58014
KECP 221653Z 12004KT 10SM SCT040 31/22 A3005 RMK AO2 SLP185 T03110217
KECP 221553Z COR 12005KT 10SM SCT039 31/21 A3006 RMK AO2 SLP190 T03060211
KECP 221453Z 10003KT 10SM CLR 29/22 A3006 RMK AO2 SLP189 T02940222 53009
KECP 221353Z 01004KT 10SM CLR 27/23 A3005 RMK AO2 SLP185 T02720228